Aviation Digital Data Service (ADDS)

Output produced by TAFs form (0842 UTC 24 September 2017)
found at http://aviationweather.gov/adds/tafs/
 
KPUB 240538Z 2406/2506 01015KT P6SM VCSH BKN025 
     TEMPO 2406/2407 -SHRA 
     FM240900 04008KT P6SM BKN020 
     FM241800 08012KT P6SM SCT020 BKN035 
     FM250200 03010KT P6SM SCT035 BKN100